sensor_id;sensor_type;location;lat;lon;timestamp;P1;durP1;ratioP1;P2;durP2;ratioP2
67041;SDS011;53949;47.790;18.750;2022-10-30T00:01:35;53.90;;;24.12;;
67041;SDS011;53949;47.790;18.750;2022-10-30T00:04:38;55.60;;;23.08;;
67041;SDS011;53949;47.790;18.750;2022-10-30T00:07:41;51.28;;;23.20;;
67041;SDS011;53949;47.790;18.750;2022-10-30T00:10:44;56.53;;;24.33;;
67041;SDS011;53949;47.790;18.750;2022-10-30T00:13:48;56.15;;;23.62;;
67041;SDS011;53949;47.790;18.750;2022-10-30T00:16:52;50.47;;;25.08;;
67041;SDS011;53949;47.790;18.750;2022-10-30T00:19:55;51.20;;;23.62;;
67041;SDS011;53949;47.790;18.750;2022-10-30T00:22:59;52.38;;;23.67;;
67041;SDS011;53949;47.790;18.750;2022-10-30T00:26:03;50.95;;;23.80;;
67041;SDS011;53949;47.790;18.750;2022-10-30T00:29:07;45.53;;;22.27;;
67041;SDS011;53949;47.790;18.750;2022-10-30T00:32:09;43.50;;;21.73;;
67041;SDS011;53949;47.790;18.750;2022-10-30T00:35:12;52.40;;;23.67;;
67041;SDS011;53949;47.790;18.750;2022-10-30T00:38:15;51.67;;;23.38;;
67041;SDS011;53949;47.790;18.750;2022-10-30T00:41:20;53.87;;;24.87;;
67041;SDS011;53949;47.790;18.750;2022-10-30T00:44:39;56.15;;;25.92;;
67041;SDS011;53949;47.790;18.750;2022-10-30T00:47:44;44.28;;;22.00;;
67041;SDS011;53949;47.790;18.750;2022-10-30T00:50:50;39.88;;;19.85;;
67041;SDS011;53949;47.790;18.750;2022-10-30T00:53:56;48.80;;;21.50;;
67041;SDS011;53949;47.790;18.750;2022-10-30T00:57:01;48.63;;;24.02;;
67041;SDS011;53949;47.790;18.750;2022-10-30T01:00:08;47.78;;;22.67;;
67041;SDS011;53949;47.790;18.750;2022-10-30T01:03:12;50.40;;;21.77;;
67041;SDS011;53949;47.790;18.750;2022-10-30T01:06:17;50.38;;;23.42;;
67041;SDS011;53949;47.790;18.750;2022-10-30T01:09:21;51.28;;;23.52;;
67041;SDS011;53949;47.790;18.750;2022-10-30T01:12:24;50.95;;;24.33;;
67041;SDS011;53949;47.790;18.750;2022-10-30T01:15:29;48.05;;;22.58;;
67041;SDS011;53949;47.790;18.750;2022-10-30T01:35:46;48.72;;;23.70;;
67041;SDS011;53949;47.790;18.750;2022-10-30T01:38:55;49.88;;;22.73;;
67041;SDS011;53949;47.790;18.750;2022-10-30T01:42:08;49.42;;;22.62;;
67041;SDS011;53949;47.790;18.750;2022-10-30T01:53:00;47.28;;;22.40;;
67041;SDS011;53949;47.790;18.750;2022-10-30T01:59:42;50.77;;;22.83;;
67041;SDS011;53949;47.790;18.750;2022-10-30T02:02:47;45.53;;;20.52;;
67041;SDS011;53949;47.790;18.750;2022-10-30T02:05:53;42.75;;;20.23;;
67041;SDS011;53949;47.790;18.750;2022-10-30T02:08:58;42.05;;;19.95;;
67041;SDS011;53949;47.790;18.750;2022-10-30T02:12:01;42.55;;;19.87;;
67041;SDS011;53949;47.790;18.750;2022-10-30T02:15:05;40.75;;;20.65;;
67041;SDS011;53949;47.790;18.750;2022-10-30T02:18:09;44.80;;;20.40;;
67041;SDS011;53949;47.790;18.750;2022-10-30T02:21:14;40.03;;;19.40;;
67041;SDS011;53949;47.790;18.750;2022-10-30T02:24:17;43.50;;;20.70;;
67041;SDS011;53949;47.790;18.750;2022-10-30T02:27:20;44.50;;;20.23;;
67041;SDS011;53949;47.790;18.750;2022-10-30T02:30:23;40.47;;;20.75;;
67041;SDS011;53949;47.790;18.750;2022-10-30T02:33:27;38.58;;;20.37;;
67041;SDS011;53949;47.790;18.750;2022-10-30T02:36:30;43.85;;;20.73;;
67041;SDS011;53949;47.790;18.750;2022-10-30T02:39:33;46.15;;;20.67;;
67041;SDS011;53949;47.790;18.750;2022-10-30T02:42:37;45.45;;;21.00;;
67041;SDS011;53949;47.790;18.750;2022-10-30T02:45:40;51.22;;;22.50;;
67041;SDS011;53949;47.790;18.750;2022-10-30T02:48:43;45.65;;;21.67;;
67041;SDS011;53949;47.790;18.750;2022-10-30T02:51:48;44.00;;;22.23;;
67041;SDS011;53949;47.790;18.750;2022-10-30T02:54:51;50.67;;;22.55;;
67041;SDS011;53949;47.790;18.750;2022-10-30T02:57:54;44.92;;;21.48;;
67041;SDS011;53949;47.790;18.750;2022-10-30T03:00:57;45.47;;;20.10;;
67041;SDS011;53949;47.790;18.750;2022-10-30T03:04:00;43.92;;;19.52;;
67041;SDS011;53949;47.790;18.750;2022-10-30T03:07:03;43.00;;;19.10;;
67041;SDS011;53949;47.790;18.750;2022-10-30T03:10:06;38.97;;;19.50;;
67041;SDS011;53949;47.790;18.750;2022-10-30T03:13:10;39.37;;;18.97;;
67041;SDS011;53949;47.790;18.750;2022-10-30T03:19:22;43.60;;;19.02;;
67041;SDS011;53949;47.790;18.750;2022-10-30T03:22:26;40.95;;;19.70;;
67041;SDS011;53949;47.790;18.750;2022-10-30T03:25:29;41.00;;;19.33;;
67041;SDS011;53949;47.790;18.750;2022-10-30T03:28:33;41.47;;;20.25;;
67041;SDS011;53949;47.790;18.750;2022-10-30T03:31:37;48.95;;;21.30;;
67041;SDS011;53949;47.790;18.750;2022-10-30T03:34:41;46.95;;;21.30;;
67041;SDS011;53949;47.790;18.750;2022-10-30T03:37:44;42.20;;;20.73;;
67041;SDS011;53949;47.790;18.750;2022-10-30T03:40:47;39.63;;;18.87;;
67041;SDS011;53949;47.790;18.750;2022-10-30T03:43:50;42.17;;;19.25;;
67041;SDS011;53949;47.790;18.750;2022-10-30T03:46:53;40.45;;;19.02;;
67041;SDS011;53949;47.790;18.750;2022-10-30T03:49:57;38.90;;;18.30;;
67041;SDS011;53949;47.790;18.750;2022-10-30T03:53:00;40.20;;;18.75;;
67041;SDS011;53949;47.790;18.750;2022-10-30T03:56:04;39.95;;;18.95;;
67041;SDS011;53949;47.790;18.750;2022-10-30T03:59:08;38.17;;;19.92;;
67041;SDS011;53949;47.790;18.750;2022-10-30T04:02:12;46.53;;;20.60;;
67041;SDS011;53949;47.790;18.750;2022-10-30T04:05:17;41.97;;;20.40;;
67041;SDS011;53949;47.790;18.750;2022-10-30T04:08:21;44.63;;;20.33;;
67041;SDS011;53949;47.790;18.750;2022-10-30T04:11:25;41.42;;;20.02;;
67041;SDS011;53949;47.790;18.750;2022-10-30T04:14:28;42.90;;;19.08;;
67041;SDS011;53949;47.790;18.750;2022-10-30T04:17:31;42.97;;;20.48;;
67041;SDS011;53949;47.790;18.750;2022-10-30T04:20:35;42.83;;;19.23;;
67041;SDS011;53949;47.790;18.750;2022-10-30T04:23:38;43.35;;;19.73;;
67041;SDS011;53949;47.790;18.750;2022-10-30T04:26:43;44.40;;;20.40;;
67041;SDS011;53949;47.790;18.750;2022-10-30T04:29:46;49.53;;;20.62;;
67041;SDS011;53949;47.790;18.750;2022-10-30T04:32:55;45.75;;;20.52;;
67041;SDS011;53949;47.790;18.750;2022-10-30T04:36:00;47.70;;;21.48;;
67041;SDS011;53949;47.790;18.750;2022-10-30T04:39:05;46.17;;;20.33;;
67041;SDS011;53949;47.790;18.750;2022-10-30T04:42:08;49.38;;;20.35;;
67041;SDS011;53949;47.790;18.750;2022-10-30T04:45:13;46.03;;;20.70;;
67041;SDS011;53949;47.790;18.750;2022-10-30T04:48:17;41.17;;;18.77;;
67041;SDS011;53949;47.790;18.750;2022-10-30T04:51:20;47.35;;;19.12;;
67041;SDS011;53949;47.790;18.750;2022-10-30T04:54:24;44.35;;;20.55;;
67041;SDS011;53949;47.790;18.750;2022-10-30T04:57:27;44.10;;;19.35;;
67041;SDS011;53949;47.790;18.750;2022-10-30T05:00:30;42.90;;;18.98;;
67041;SDS011;53949;47.790;18.750;2022-10-30T05:03:34;46.03;;;20.45;;
67041;SDS011;53949;47.790;18.750;2022-10-30T05:06:38;43.42;;;18.95;;
67041;SDS011;53949;47.790;18.750;2022-10-30T05:09:42;38.58;;;18.30;;
67041;SDS011;53949;47.790;18.750;2022-10-30T05:12:46;43.45;;;19.75;;
67041;SDS011;53949;47.790;18.750;2022-10-30T05:15:49;39.42;;;18.98;;
67041;SDS011;53949;47.790;18.750;2022-10-30T05:18:53;39.97;;;18.15;;
67041;SDS011;53949;47.790;18.750;2022-10-30T05:21:55;43.50;;;19.95;;
67041;SDS011;53949;47.790;18.750;2022-10-30T05:24:59;39.80;;;17.90;;
67041;SDS011;53949;47.790;18.750;2022-10-30T05:28:03;44.88;;;17.70;;
67041;SDS011;53949;47.790;18.750;2022-10-30T05:31:09;43.15;;;19.10;;
67041;SDS011;53949;47.790;18.750;2022-10-30T05:34:14;44.67;;;19.77;;
67041;SDS011;53949;47.790;18.750;2022-10-30T05:37:18;44.05;;;20.00;;
67041;SDS011;53949;47.790;18.750;2022-10-30T05:40:20;43.25;;;20.55;;
67041;SDS011;53949;47.790;18.750;2022-10-30T05:43:23;37.80;;;18.30;;
67041;SDS011;53949;47.790;18.750;2022-10-30T05:46:27;39.65;;;19.30;;
67041;SDS011;53949;47.790;18.750;2022-10-30T05:49:30;38.90;;;17.52;;
67041;SDS011;53949;47.790;18.750;2022-10-30T05:52:33;34.00;;;18.23;;
67041;SDS011;53949;47.790;18.750;2022-10-30T05:55:37;32.30;;;17.50;;
67041;SDS011;53949;47.790;18.750;2022-10-30T05:58:42;34.83;;;16.77;;
67041;SDS011;53949;47.790;18.750;2022-10-30T06:01:46;35.00;;;16.83;;
67041;SDS011;53949;47.790;18.750;2022-10-30T06:04:51;31.13;;;16.33;;
67041;SDS011;53949;47.790;18.750;2022-10-30T06:07:54;31.20;;;16.98;;
67041;SDS011;53949;47.790;18.750;2022-10-30T06:10:58;30.50;;;17.20;;
67041;SDS011;53949;47.790;18.750;2022-10-30T06:14:01;32.08;;;16.20;;
67041;SDS011;53949;47.790;18.750;2022-10-30T06:17:04;33.03;;;16.50;;
67041;SDS011;53949;47.790;18.750;2022-10-30T06:20:08;34.03;;;16.17;;
67041;SDS011;53949;47.790;18.750;2022-10-30T06:23:13;33.85;;;16.12;;
67041;SDS011;53949;47.790;18.750;2022-10-30T06:26:16;31.83;;;16.45;;
67041;SDS011;53949;47.790;18.750;2022-10-30T06:29:20;30.20;;;15.15;;
67041;SDS011;53949;47.790;18.750;2022-10-30T06:32:23;33.70;;;15.77;;
67041;SDS011;53949;47.790;18.750;2022-10-30T06:35:27;32.45;;;14.87;;
67041;SDS011;53949;47.790;18.750;2022-10-30T06:38:30;28.90;;;15.40;;
67041;SDS011;53949;47.790;18.750;2022-10-30T06:41:33;33.88;;;15.05;;
67041;SDS011;53949;47.790;18.750;2022-10-30T06:44:36;24.15;;;13.30;;
67041;SDS011;53949;47.790;18.750;2022-10-30T06:47:39;27.80;;;13.88;;
67041;SDS011;53949;47.790;18.750;2022-10-30T06:50:43;29.12;;;14.57;;
67041;SDS011;53949;47.790;18.750;2022-10-30T06:53:46;26.08;;;13.75;;
67041;SDS011;53949;47.790;18.750;2022-10-30T06:56:52;26.75;;;14.82;;
67041;SDS011;53949;47.790;18.750;2022-10-30T06:59:56;27.65;;;14.20;;
67041;SDS011;53949;47.790;18.750;2022-10-30T07:02:59;27.40;;;14.18;;
67041;SDS011;53949;47.790;18.750;2022-10-30T07:06:04;30.60;;;14.13;;
67041;SDS011;53949;47.790;18.750;2022-10-30T07:09:08;28.00;;;14.02;;
67041;SDS011;53949;47.790;18.750;2022-10-30T07:12:12;27.92;;;13.55;;
67041;SDS011;53949;47.790;18.750;2022-10-30T07:15:14;25.15;;;12.75;;
67041;SDS011;53949;47.790;18.750;2022-10-30T07:18:18;28.40;;;14.25;;
67041;SDS011;53949;47.790;18.750;2022-10-30T07:21:24;30.77;;;14.07;;
67041;SDS011;53949;47.790;18.750;2022-10-30T07:27:31;28.95;;;13.55;;
67041;SDS011;53949;47.790;18.750;2022-10-30T07:30:35;30.90;;;15.57;;
67041;SDS011;53949;47.790;18.750;2022-10-30T07:33:39;29.35;;;15.02;;
67041;SDS011;53949;47.790;18.750;2022-10-30T07:36:43;29.17;;;15.30;;
67041;SDS011;53949;47.790;18.750;2022-10-30T07:39:48;30.95;;;15.45;;
67041;SDS011;53949;47.790;18.750;2022-10-30T07:42:55;30.52;;;16.23;;
67041;SDS011;53949;47.790;18.750;2022-10-30T07:46:00;26.62;;;14.00;;
67041;SDS011;53949;47.790;18.750;2022-10-30T07:49:05;30.37;;;14.25;;
67041;SDS011;53949;47.790;18.750;2022-10-30T07:52:08;28.12;;;14.60;;
67041;SDS011;53949;47.790;18.750;2022-10-30T07:55:19;26.12;;;13.73;;
67041;SDS011;53949;47.790;18.750;2022-10-30T07:58:23;27.40;;;14.37;;
67041;SDS011;53949;47.790;18.750;2022-10-30T08:01:28;32.70;;;14.73;;
67041;SDS011;53949;47.790;18.750;2022-10-30T08:04:35;33.75;;;15.93;;
67041;SDS011;53949;47.790;18.750;2022-10-30T08:07:39;27.95;;;15.20;;
67041;SDS011;53949;47.790;18.750;2022-10-30T08:10:42;30.02;;;14.55;;
67041;SDS011;53949;47.790;18.750;2022-10-30T08:13:46;27.52;;;13.80;;
67041;SDS011;53949;47.790;18.750;2022-10-30T08:16:49;27.48;;;15.30;;
67041;SDS011;53949;47.790;18.750;2022-10-30T08:19:53;33.30;;;15.70;;
67041;SDS011;53949;47.790;18.750;2022-10-30T08:22:57;32.10;;;15.87;;
67041;SDS011;53949;47.790;18.750;2022-10-30T08:26:00;30.80;;;15.52;;
67041;SDS011;53949;47.790;18.750;2022-10-30T08:29:03;31.45;;;15.93;;
67041;SDS011;53949;47.790;18.750;2022-10-30T08:32:06;32.90;;;14.73;;
67041;SDS011;53949;47.790;18.750;2022-10-30T08:35:11;26.25;;;14.52;;
67041;SDS011;53949;47.790;18.750;2022-10-30T08:38:21;29.85;;;14.30;;
67041;SDS011;53949;47.790;18.750;2022-10-30T08:41:25;32.08;;;15.13;;
67041;SDS011;53949;47.790;18.750;2022-10-30T08:44:28;31.15;;;15.20;;
67041;SDS011;53949;47.790;18.750;2022-10-30T08:47:35;32.63;;;14.98;;
67041;SDS011;53949;47.790;18.750;2022-10-30T08:50:39;29.65;;;15.25;;
67041;SDS011;53949;47.790;18.750;2022-10-30T08:53:42;29.55;;;14.00;;
67041;SDS011;53949;47.790;18.750;2022-10-30T08:56:45;33.85;;;15.82;;
67041;SDS011;53949;47.790;18.750;2022-10-30T08:59:50;36.10;;;14.80;;
67041;SDS011;53949;47.790;18.750;2022-10-30T09:02:54;32.90;;;14.38;;
67041;SDS011;53949;47.790;18.750;2022-10-30T09:06:03;29.77;;;14.32;;
67041;SDS011;53949;47.790;18.750;2022-10-30T09:09:07;37.60;;;15.27;;
67041;SDS011;53949;47.790;18.750;2022-10-30T09:12:11;33.13;;;14.90;;
67041;SDS011;53949;47.790;18.750;2022-10-30T09:15:14;28.73;;;13.45;;
67041;SDS011;53949;47.790;18.750;2022-10-30T09:18:19;36.43;;;16.87;;
67041;SDS011;53949;47.790;18.750;2022-10-30T09:21:23;32.60;;;15.82;;
67041;SDS011;53949;47.790;18.750;2022-10-30T09:24:27;31.23;;;15.05;;
67041;SDS011;53949;47.790;18.750;2022-10-30T09:27:36;29.80;;;14.65;;
67041;SDS011;53949;47.790;18.750;2022-10-30T09:30:42;28.60;;;13.93;;
67041;SDS011;53949;47.790;18.750;2022-10-30T09:33:46;30.42;;;14.95;;
67041;SDS011;53949;47.790;18.750;2022-10-30T09:36:55;27.95;;;14.52;;
67041;SDS011;53949;47.790;18.750;2022-10-30T09:39:58;31.45;;;17.08;;
67041;SDS011;53949;47.790;18.750;2022-10-30T09:56:14;31.83;;;15.32;;
67041;SDS011;53949;47.790;18.750;2022-10-30T10:03:27;27.90;;;14.43;;
67041;SDS011;53949;47.790;18.750;2022-10-30T10:06:26;27.75;;;13.55;;
67041;SDS011;53949;47.790;18.750;2022-10-30T10:09:30;26.05;;;12.75;;
67041;SDS011;53949;47.790;18.750;2022-10-30T10:12:41;29.40;;;14.18;;
67041;SDS011;53949;47.790;18.750;2022-10-30T10:15:47;33.10;;;15.48;;
67041;SDS011;53949;47.790;18.750;2022-10-30T10:22:21;24.27;;;12.80;;
67041;SDS011;53949;47.790;18.750;2022-10-30T10:25:28;25.25;;;13.77;;
67041;SDS011;53949;47.790;18.750;2022-10-30T10:39:29;27.75;;;13.55;;
67041;SDS011;53949;47.790;18.750;2022-10-30T10:42:39;28.42;;;13.85;;
67041;SDS011;53949;47.790;18.750;2022-10-30T10:52:42;21.40;;;12.70;;
67041;SDS011;53949;47.790;18.750;2022-10-30T10:56:08;25.55;;;13.80;;
67041;SDS011;53949;47.790;18.750;2022-10-30T11:05:33;24.55;;;13.52;;
67041;SDS011;53949;47.790;18.750;2022-10-30T11:08:38;24.12;;;12.98;;
67041;SDS011;53949;47.790;18.750;2022-10-30T11:11:42;27.43;;;15.20;;
67041;SDS011;53949;47.790;18.750;2022-10-30T11:14:46;26.98;;;14.13;;
67041;SDS011;53949;47.790;18.750;2022-10-30T11:21:10;25.80;;;13.27;;
67041;SDS011;53949;47.790;18.750;2022-10-30T11:27:33;25.08;;;13.18;;
67041;SDS011;53949;47.790;18.750;2022-10-30T11:30:36;22.52;;;13.68;;
67041;SDS011;53949;47.790;18.750;2022-10-30T11:33:39;25.45;;;14.32;;
67041;SDS011;53949;47.790;18.750;2022-10-30T11:36:42;25.33;;;13.20;;
67041;SDS011;53949;47.790;18.750;2022-10-30T11:40:03;19.20;;;11.73;;
67041;SDS011;53949;47.790;18.750;2022-10-30T11:43:17;19.85;;;10.93;;
67041;SDS011;53949;47.790;18.750;2022-10-30T11:46:23;19.35;;;11.23;;
67041;SDS011;53949;47.790;18.750;2022-10-30T11:49:44;19.48;;;10.68;;
67041;SDS011;53949;47.790;18.750;2022-10-30T11:52:56;22.60;;;11.65;;
67041;SDS011;53949;47.790;18.750;2022-10-30T11:56:02;19.62;;;12.40;;
67041;SDS011;53949;47.790;18.750;2022-10-30T11:59:13;23.98;;;12.80;;
67041;SDS011;53949;47.790;18.750;2022-10-30T12:02:25;23.50;;;12.70;;
67041;SDS011;53949;47.790;18.750;2022-10-30T12:05:34;24.67;;;12.07;;
67041;SDS011;53949;47.790;18.750;2022-10-30T12:08:38;26.77;;;12.90;;
67041;SDS011;53949;47.790;18.750;2022-10-30T12:11:42;25.37;;;13.10;;
67041;SDS011;53949;47.790;18.750;2022-10-30T12:14:46;24.73;;;13.38;;
67041;SDS011;53949;47.790;18.750;2022-10-30T12:17:53;24.92;;;14.35;;
67041;SDS011;53949;47.790;18.750;2022-10-30T12:20:57;23.80;;;12.68;;
67041;SDS011;53949;47.790;18.750;2022-10-30T12:24:01;23.73;;;13.80;;
67041;SDS011;53949;47.790;18.750;2022-10-30T12:27:11;25.40;;;13.15;;
67041;SDS011;53949;47.790;18.750;2022-10-30T12:30:23;21.58;;;13.25;;
67041;SDS011;53949;47.790;18.750;2022-10-30T12:34:13;21.12;;;12.20;;
67041;SDS011;53949;47.790;18.750;2022-10-30T12:40:28;23.60;;;13.75;;
67041;SDS011;53949;47.790;18.750;2022-10-30T12:43:33;23.90;;;13.68;;
67041;SDS011;53949;47.790;18.750;2022-10-30T12:46:41;25.40;;;14.02;;
67041;SDS011;53949;47.790;18.750;2022-10-30T12:50:02;27.00;;;13.45;;
67041;SDS011;53949;47.790;18.750;2022-10-30T12:53:18;23.10;;;13.45;;
67041;SDS011;53949;47.790;18.750;2022-10-30T12:56:26;23.67;;;13.55;;
67041;SDS011;53949;47.790;18.750;2022-10-30T13:06:26;19.02;;;12.27;;
67041;SDS011;53949;47.790;18.750;2022-10-30T13:09:44;24.45;;;14.43;;
67041;SDS011;53949;47.790;18.750;2022-10-30T13:12:52;23.05;;;12.80;;
67041;SDS011;53949;47.790;18.750;2022-10-30T13:16:01;30.85;;;15.05;;
67041;SDS011;53949;47.790;18.750;2022-10-30T13:19:07;26.83;;;13.25;;
67041;SDS011;53949;47.790;18.750;2022-10-30T13:22:24;27.73;;;15.18;;
67041;SDS011;53949;47.790;18.750;2022-10-30T13:26:06;28.08;;;14.75;;
67041;SDS011;53949;47.790;18.750;2022-10-30T13:52:19;24.55;;;14.60;;
67041;SDS011;53949;47.790;18.750;2022-10-30T13:55:25;27.58;;;13.60;;
67041;SDS011;53949;47.790;18.750;2022-10-30T13:58:34;27.08;;;14.38;;
67041;SDS011;53949;47.790;18.750;2022-10-30T14:01:50;27.08;;;14.55;;
67041;SDS011;53949;47.790;18.750;2022-10-30T14:05:11;24.87;;;15.23;;
67041;SDS011;53949;47.790;18.750;2022-10-30T14:11:39;58.50;;;25.35;;
67041;SDS011;53949;47.790;18.750;2022-10-30T14:14:44;69.78;;;34.45;;
67041;SDS011;53949;47.790;18.750;2022-10-30T14:18:24;36.05;;;19.17;;
67041;SDS011;53949;47.790;18.750;2022-10-30T14:25:01;23.98;;;13.88;;
67041;SDS011;53949;47.790;18.750;2022-10-30T14:28:18;44.13;;;22.62;;
67041;SDS011;53949;47.790;18.750;2022-10-30T14:31:31;30.90;;;16.77;;
67041;SDS011;53949;47.790;18.750;2022-10-30T14:40:54;27.17;;;16.00;;
67041;SDS011;53949;47.790;18.750;2022-10-30T14:44:09;31.20;;;16.30;;
67041;SDS011;53949;47.790;18.750;2022-10-30T14:57:02;27.95;;;15.07;;
67041;SDS011;53949;47.790;18.750;2022-10-30T15:10:49;30.52;;;16.20;;
67041;SDS011;53949;47.790;18.750;2022-10-30T15:14:07;32.17;;;17.42;;
67041;SDS011;53949;47.790;18.750;2022-10-30T15:20:39;29.23;;;15.63;;
67041;SDS011;53949;47.790;18.750;2022-10-30T15:23:42;30.30;;;15.55;;
67041;SDS011;53949;47.790;18.750;2022-10-30T15:26:52;30.95;;;15.93;;
67041;SDS011;53949;47.790;18.750;2022-10-30T15:29:58;27.58;;;14.95;;
67041;SDS011;53949;47.790;18.750;2022-10-30T15:33:02;25.62;;;15.05;;
67041;SDS011;53949;47.790;18.750;2022-10-30T15:36:18;28.15;;;15.10;;
67041;SDS011;53949;47.790;18.750;2022-10-30T15:39:23;32.45;;;16.80;;
67041;SDS011;53949;47.790;18.750;2022-10-30T15:42:27;34.75;;;17.40;;
67041;SDS011;53949;47.790;18.750;2022-10-30T15:45:34;25.67;;;14.98;;
67041;SDS011;53949;47.790;18.750;2022-10-30T15:48:39;30.45;;;16.12;;
67041;SDS011;53949;47.790;18.750;2022-10-30T15:51:44;34.45;;;17.45;;
67041;SDS011;53949;47.790;18.750;2022-10-30T15:54:51;30.45;;;16.02;;
67041;SDS011;53949;47.790;18.750;2022-10-30T15:57:57;29.25;;;17.23;;
67041;SDS011;53949;47.790;18.750;2022-10-30T16:04:48;32.63;;;16.50;;
67041;SDS011;53949;47.790;18.750;2022-10-30T16:07:53;32.42;;;17.77;;
67041;SDS011;53949;47.790;18.750;2022-10-30T16:10:58;32.85;;;16.25;;
67041;SDS011;53949;47.790;18.750;2022-10-30T16:14:04;30.90;;;14.98;;
67041;SDS011;53949;47.790;18.750;2022-10-30T16:17:09;29.08;;;16.17;;
67041;SDS011;53949;47.790;18.750;2022-10-30T16:20:13;29.77;;;17.10;;
67041;SDS011;53949;47.790;18.750;2022-10-30T16:23:17;30.30;;;15.43;;
67041;SDS011;53949;47.790;18.750;2022-10-30T16:26:35;31.58;;;17.58;;
67041;SDS011;53949;47.790;18.750;2022-10-30T16:29:39;34.10;;;18.15;;
67041;SDS011;53949;47.790;18.750;2022-10-30T16:32:48;32.15;;;18.25;;
67041;SDS011;53949;47.790;18.750;2022-10-30T16:35:56;32.03;;;18.12;;
67041;SDS011;53949;47.790;18.750;2022-10-30T16:39:00;37.42;;;19.35;;
67041;SDS011;53949;47.790;18.750;2022-10-30T16:42:04;35.10;;;18.80;;
67041;SDS011;53949;47.790;18.750;2022-10-30T16:48:24;34.65;;;18.17;;
67041;SDS011;53949;47.790;18.750;2022-10-30T16:51:32;32.35;;;17.15;;
67041;SDS011;53949;47.790;18.750;2022-10-30T16:54:37;31.83;;;16.73;;
67041;SDS011;53949;47.790;18.750;2022-10-30T16:57:42;32.17;;;16.15;;
67041;SDS011;53949;47.790;18.750;2022-10-30T17:00:48;31.37;;;16.37;;
67041;SDS011;53949;47.790;18.750;2022-10-30T17:03:53;37.78;;;18.48;;
67041;SDS011;53949;47.790;18.750;2022-10-30T17:07:02;33.63;;;18.00;;
67041;SDS011;53949;47.790;18.750;2022-10-30T17:13:56;33.67;;;17.45;;
67041;SDS011;53949;47.790;18.750;2022-10-30T17:17:02;38.47;;;18.75;;
67041;SDS011;53949;47.790;18.750;2022-10-30T17:23:29;33.92;;;17.73;;
67041;SDS011;53949;47.790;18.750;2022-10-30T17:26:36;33.63;;;18.27;;
67041;SDS011;53949;47.790;18.750;2022-10-30T17:29:42;45.85;;;23.98;;
67041;SDS011;53949;47.790;18.750;2022-10-30T17:32:51;35.95;;;20.27;;
67041;SDS011;53949;47.790;18.750;2022-10-30T17:35:59;36.05;;;18.92;;
67041;SDS011;53949;47.790;18.750;2022-10-30T17:39:03;44.38;;;23.20;;
67041;SDS011;53949;47.790;18.750;2022-10-30T17:42:09;36.97;;;19.10;;
67041;SDS011;53949;47.790;18.750;2022-10-30T17:45:12;34.30;;;18.17;;
67041;SDS011;53949;47.790;18.750;2022-10-30T17:48:16;32.63;;;17.95;;
67041;SDS011;53949;47.790;18.750;2022-10-30T17:51:20;33.97;;;17.83;;
67041;SDS011;53949;47.790;18.750;2022-10-30T17:54:30;29.95;;;15.48;;
67041;SDS011;53949;47.790;18.750;2022-10-30T17:57:33;35.42;;;18.92;;
67041;SDS011;53949;47.790;18.750;2022-10-30T18:00:36;32.95;;;18.60;;
67041;SDS011;53949;47.790;18.750;2022-10-30T18:03:41;32.85;;;18.65;;
67041;SDS011;53949;47.790;18.750;2022-10-30T18:06:45;42.13;;;21.17;;
67041;SDS011;53949;47.790;18.750;2022-10-30T18:09:48;37.33;;;19.20;;
67041;SDS011;53949;47.790;18.750;2022-10-30T18:12:51;41.58;;;19.62;;
67041;SDS011;53949;47.790;18.750;2022-10-30T18:15:56;34.80;;;18.65;;
67041;SDS011;53949;47.790;18.750;2022-10-30T18:19:00;42.88;;;20.77;;
67041;SDS011;53949;47.790;18.750;2022-10-30T18:22:04;33.23;;;18.27;;
67041;SDS011;53949;47.790;18.750;2022-10-30T18:25:13;31.33;;;15.80;;
67041;SDS011;53949;47.790;18.750;2022-10-30T18:28:22;34.23;;;19.60;;
67041;SDS011;53949;47.790;18.750;2022-10-30T18:31:27;29.50;;;16.50;;
67041;SDS011;53949;47.790;18.750;2022-10-30T18:34:45;35.38;;;17.75;;
67041;SDS011;53949;47.790;18.750;2022-10-30T18:37:49;34.33;;;17.90;;
67041;SDS011;53949;47.790;18.750;2022-10-30T18:40:52;31.52;;;17.30;;
67041;SDS011;53949;47.790;18.750;2022-10-30T18:43:57;30.10;;;18.00;;
67041;SDS011;53949;47.790;18.750;2022-10-30T18:47:01;29.93;;;16.27;;
67041;SDS011;53949;47.790;18.750;2022-10-30T18:50:07;32.78;;;16.23;;
67041;SDS011;53949;47.790;18.750;2022-10-30T18:53:15;31.75;;;17.55;;
67041;SDS011;53949;47.790;18.750;2022-10-30T18:56:20;28.80;;;15.98;;
67041;SDS011;53949;47.790;18.750;2022-10-30T18:59:25;30.67;;;16.55;;
67041;SDS011;53949;47.790;18.750;2022-10-30T19:02:29;29.45;;;17.52;;
67041;SDS011;53949;47.790;18.750;2022-10-30T19:05:34;35.88;;;19.73;;
67041;SDS011;53949;47.790;18.750;2022-10-30T19:08:41;31.75;;;17.37;;
67041;SDS011;53949;47.790;18.750;2022-10-30T19:11:45;37.67;;;18.37;;
67041;SDS011;53949;47.790;18.750;2022-10-30T19:14:49;34.78;;;18.52;;
67041;SDS011;53949;47.790;18.750;2022-10-30T19:17:54;32.70;;;18.42;;
67041;SDS011;53949;47.790;18.750;2022-10-30T19:20:58;30.55;;;18.00;;
67041;SDS011;53949;47.790;18.750;2022-10-30T19:24:11;34.30;;;18.33;;
67041;SDS011;53949;47.790;18.750;2022-10-30T19:27:16;40.90;;;23.48;;
67041;SDS011;53949;47.790;18.750;2022-10-30T19:30:22;41.90;;;25.62;;
67041;SDS011;53949;47.790;18.750;2022-10-30T19:33:26;39.70;;;21.35;;
67041;SDS011;53949;47.790;18.750;2022-10-30T19:36:35;39.20;;;19.75;;
67041;SDS011;53949;47.790;18.750;2022-10-30T19:39:40;39.85;;;21.55;;
67041;SDS011;53949;47.790;18.750;2022-10-30T19:42:43;41.97;;;21.20;;
67041;SDS011;53949;47.790;18.750;2022-10-30T19:45:48;40.47;;;22.40;;
67041;SDS011;53949;47.790;18.750;2022-10-30T19:48:57;46.00;;;21.48;;
67041;SDS011;53949;47.790;18.750;2022-10-30T19:52:02;41.58;;;21.67;;
67041;SDS011;53949;47.790;18.750;2022-10-30T19:55:08;41.60;;;22.80;;
67041;SDS011;53949;47.790;18.750;2022-10-30T19:58:13;40.75;;;20.88;;
67041;SDS011;53949;47.790;18.750;2022-10-30T20:01:18;41.35;;;19.70;;
67041;SDS011;53949;47.790;18.750;2022-10-30T20:04:22;38.33;;;20.42;;
67041;SDS011;53949;47.790;18.750;2022-10-30T20:07:26;40.53;;;21.17;;
67041;SDS011;53949;47.790;18.750;2022-10-30T20:10:32;40.72;;;20.90;;
67041;SDS011;53949;47.790;18.750;2022-10-30T20:13:41;43.75;;;21.67;;
67041;SDS011;53949;47.790;18.750;2022-10-30T20:16:46;39.17;;;20.73;;
67041;SDS011;53949;47.790;18.750;2022-10-30T20:19:49;38.45;;;20.40;;
67041;SDS011;53949;47.790;18.750;2022-10-30T20:22:53;37.38;;;19.75;;
67041;SDS011;53949;47.790;18.750;2022-10-30T20:25:58;40.12;;;20.12;;
67041;SDS011;53949;47.790;18.750;2022-10-30T20:29:05;33.05;;;18.90;;
67041;SDS011;53949;47.790;18.750;2022-10-30T20:32:08;37.67;;;19.15;;
67041;SDS011;53949;47.790;18.750;2022-10-30T20:35:12;38.97;;;18.20;;
67041;SDS011;53949;47.790;18.750;2022-10-30T20:38:37;38.90;;;19.05;;
67041;SDS011;53949;47.790;18.750;2022-10-30T20:41:39;34.05;;;17.45;;